Time;durP1;ratioP1;P1;durP2;ratioP2;P2;SDS_P1;SDS_P2;PMS_P1;PMS_P2;Temp;Humidity;BMP_temperature;BMP_pressure;BME280_temperature;BME280_humidity;BME280_pressure;Samples;Min_cycle;Max_cycle;Signal;HPM_P1;HPM_P2
2021/06/09 00:00:20;;;;;;;13.43;11.93;;;;;;;15.64;100.00;95881.38;1008920;29;20029;-82
2021/06/09 00:00:56;;;;;;;13.18;11.88;;;;;;;15.80;100.00;95906.91;1008804;29;20114;-81
2021/06/09 00:01:30;;;;;;;13.90;12.50;;;;;;;15.60;100.00;95885.47;1005252;29;20033;-81
2021/06/09 00:02:09;;;;;;;13.93;12.40;;;;;;;15.70;100.00;95903.81;1005073;29;20037;-81
2021/06/09 00:02:46;;;;;;;14.68;13.00;;;;;;;15.54;100.00;95886.34;1005183;29;20037;-82
2021/06/09 00:03:23;;;;;;;16.42;13.25;;;;;;;15.61;100.00;95886.31;997703;29;20033;-81
2021/06/09 00:03:56;;;;;;;13.85;12.45;;;;;;;15.71;100.00;95902.78;997722;29;20026;-81
2021/06/09 00:04:29;;;;;;;14.35;12.38;;;;;;;15.77;100.00;95912.66;1002989;29;20421;-81
2021/06/09 00:05:04;;;;;;;14.05;12.32;;;;;;;15.76;100.00;95911.03;1004734;29;20037;-80
2021/06/09 00:05:40;;;;;;;14.27;11.23;;;;;;;15.68;100.00;95897.03;1004981;29;20056;-80
2021/06/09 00:06:14;;;;;;;13.82;12.38;;;;;;;15.75;100.00;95908.56;1001190;29;20498;-81
2021/06/09 00:06:54;;;;;;;13.07;11.55;;;;;;;15.70;100.00;95897.63;1004760;29;20030;-80
2021/06/09 00:07:25;;;;;;;13.68;11.80;;;;;;;15.41;100.00;95854.22;1012064;29;20088;-80
2021/06/09 00:07:57;;;;;;;15.60;12.98;;;;;;;15.69;100.00;95912.03;1008538;29;20025;-79
2021/06/09 00:08:30;;;;;;;14.98;13.05;;;;;;;15.69;100.00;95910.19;1008479;29;20511;-80
2021/06/09 00:09:01;;;;;;;14.75;12.52;;;;;;;15.66;100.00;95902.59;1004576;29;20121;-79
2021/06/09 00:09:36;;;;;;;13.02;11.65;;;;;;;15.68;100.00;95913.91;1001006;29;20401;-80
2021/06/09 00:10:10;;;;;;;14.02;12.55;;;;;;;15.68;100.00;95913.09;1004920;29;20526;-80
2021/06/09 00:10:57;;;;;;;13.73;12.32;;;;;;;15.46;100.00;95882.03;1001103;29;20504;-81
2021/06/09 00:11:31;;;;;;;14.00;12.55;;;;;;;15.68;100.00;95902.38;1004793;29;20531;-81
2021/06/09 00:12:08;;;;;;;13.40;12.02;;;;;;;15.71;100.00;95912.66;997363;29;20030;-81
2021/06/09 00:12:41;;;;;;;15.05;11.77;;;;;;;15.41;100.00;95863.09;1001282;29;20053;-79
2021/06/09 00:13:17;;;;;;;14.93;12.45;;;;;;;15.46;100.00;95871.31;1000730;29;20083;-80
2021/06/09 00:13:51;;;;;;;13.90;11.85;;;;;;;15.50;100.00;95877.09;997221;29;20440;-80
2021/06/09 00:14:27;;;;;;;13.93;11.95;;;;;;;15.49;100.00;95882.63;1000971;29;20038;-80
2021/06/09 00:15:34;;;;;;;14.30;12.60;;;;;;;15.64;100.00;95913.50;1010931;29;20093;-80
2021/06/09 00:16:42;;;;;;;15.35;12.32;;;;;;;15.57;100.00;95882.41;1012427;29;20060;-80
2021/06/09 00:17:23;;;;;;;14.52;12.20;;;;;;;15.68;100.00;95908.53;1008663;29;20013;-80
2021/06/09 00:18:07;;;;;;;15.95;12.80;;;;;;;15.63;100.00;95906.50;1001019;29;20026;-80
2021/06/09 00:18:42;;;;;;;14.07;12.57;;;;;;;15.47;100.00;95885.53;1001856;29;20091;-79
2021/06/09 00:19:27;;;;;;;14.50;13.00;;;;;;;15.52;100.00;95893.75;1004702;29;20124;-81
2021/06/09 00:20:05;;;;;;;14.90;12.30;;;;;;;15.58;100.00;95903.59;1008441;29;20138;-80
2021/06/09 00:20:39;;;;;;;15.45;12.25;;;;;;;15.29;100.00;95878.13;997261;29;20030;-80
2021/06/09 00:21:12;;;;;;;13.23;11.93;;;;;;;15.47;100.00;95909.63;1000874;29;20041;-80
2021/06/09 00:21:47;;;;;;;16.52;12.75;;;;;;;15.44;100.00;95910.84;1012308;29;20036;-83
2021/06/09 00:22:19;;;;;;;15.93;12.73;;;;;;;15.30;100.00;95876.28;1004567;29;20575;-81
2021/06/09 00:22:50;;;;;;;13.55;12.15;;;;;;;15.22;100.00;95866.59;1000425;29;20126;-83
2021/06/09 00:23:26;;;;;;;16.15;12.55;;;;;;;15.35;100.00;95887.19;1007968;29;20111;-83
2021/06/09 00:23:56;;;;;;;13.35;11.95;;;;;;;15.49;100.00;95893.34;996860;29;20053;-80
2021/06/09 00:24:27;;;;;;;13.48;12.07;;;;;;;15.47;100.00;95885.53;1000560;29;20044;-84
2021/06/09 00:24:58;;;;;;;16.33;12.73;;;;;;;15.52;100.00;95891.06;1000780;29;20366;-84
2021/06/09 00:25:29;;;;;;;13.25;11.85;;;;;;;15.47;100.00;95880.16;1005550;29;20033;-85
2021/06/09 00:26:02;;;;;;;13.50;12.13;;;;;;;15.44;100.00;95881.41;1006466;29;20040;-83
2021/06/09 00:26:34;;;;;;;13.07;11.68;;;;;;;15.32;100.00;95868.88;1006841;29;20086;-83
2021/06/09 00:27:05;;;;;;;14.65;12.77;;;;;;;15.23;100.00;95852.19;1006782;29;20029;-83
2021/06/09 00:27:36;;;;;;;15.90;12.07;;;;;;;15.27;100.00;95859.63;1005265;29;20029;-82
2021/06/09 00:28:09;;;;;;;13.38;11.98;;;;;;;15.24;100.00;95854.66;1001372;29;20030;-82
2021/06/09 00:28:53;;;;;;;14.13;12.35;;;;;;;15.37;100.00;95877.09;997856;29;20040;-81
2021/06/09 00:30:06;;;;;;;13.63;12.00;;;;;;;15.49;100.00;95880.78;1001968;29;20106;-82
2021/06/09 00:30:58;;;;;;;13.90;12.38;;;;;;;15.53;100.00;95883.84;1008671;29;20503;-80
2021/06/09 00:31:51;;;;;;;15.50;12.20;;;;;;;15.63;100.00;95898.44;1012645;29;20029;-81
2021/06/09 00:32:37;;;;;;;14.85;12.68;;;;;;;15.60;100.00;95904.22;1004709;29;20523;-81
2021/06/09 00:33:13;;;;;;;14.95;12.75;;;;;;;15.27;100.00;95862.28;997200;29;20540;-81
2021/06/09 00:33:45;;;;;;;14.30;12.30;;;;;;;15.31;100.00;95861.84;1000537;29;20484;-82
2021/06/09 00:34:16;;;;;;;14.68;12.32;;;;;;;15.14;100.00;95851.59;1004493;29;20030;-82
2021/06/09 00:34:47;;;;;;;13.68;12.23;;;;;;;15.29;100.00;95880.78;997000;29;20136;-81
2021/06/09 00:35:18;;;;;;;13.52;12.05;;;;;;;15.28;100.00;95871.13;1004666;29;20473;-82
2021/06/09 00:35:48;;;;;;;14.25;12.75;;;;;;;15.52;100.00;95899.09;1000824;29;20036;-84
2021/06/09 00:36:19;;;;;;;15.70;12.63;;;;;;;15.33;100.00;95873.19;1004901;29;20033;-82
2021/06/09 00:36:49;;;;;;;13.88;11.90;;;;;;;15.35;100.00;95888.00;1000693;29;20429;-83
2021/06/09 00:37:20;;;;;;;13.55;12.15;;;;;;;15.26;100.00;95859.81;1008942;29;20044;-84
2021/06/09 00:37:51;;;;;;;13.90;12.43;;;;;;;15.48;100.00;95891.69;1001025;29;20464;-82
2021/06/09 00:38:22;;;;;;;13.30;11.95;;;;;;;15.42;100.00;95872.75;999892;29;20037;-84
2021/06/09 00:38:52;;;;;;;14.05;12.65;;;;;;;15.33;100.00;95875.88;1000987;29;20045;-81
2021/06/09 00:39:23;;;;;;;15.18;12.40;;;;;;;14.99;100.00;95818.88;1001070;29;20097;-82
2021/06/09 00:39:54;;;;;;;14.55;12.48;;;;;;;15.44;100.00;95897.44;1004838;29;20037;-82
2021/06/09 00:40:24;;;;;;;14.27;12.73;;;;;;;15.37;100.00;95874.41;1005298;29;20508;-81
2021/06/09 00:40:56;;;;;;;14.00;12.60;;;;;;;15.35;100.00;95863.91;1001296;29;20038;-83
2021/06/09 00:41:27;;;;;;;14.38;12.80;;;;;;;15.13;100.00;95841.91;1012608;29;20531;-83
2021/06/09 00:41:57;;;;;;;13.23;11.82;;;;;;;15.37;100.00;95875.22;1004909;29;20108;-82
2021/06/09 00:42:28;;;;;;;15.13;12.35;;;;;;;15.36;100.00;95867.41;1001025;29;20041;-83
2021/06/09 00:43:02;;;;;;;14.32;12.82;;;;;;;15.54;100.00;95898.91;1004746;29;20026;-83
2021/06/09 00:43:34;;;;;;;14.35;12.95;;;;;;;15.23;100.00;95873.59;1004435;29;20040;-82
2021/06/09 00:44:05;;;;;;;15.13;13.40;;;;;;;15.32;100.00;95893.75;1004947;29;20041;-83
2021/06/09 00:44:35;;;;;;;15.38;12.60;;;;;;;15.18;100.00;95873.41;1001350;29;20026;-84
2021/06/09 00:45:07;;;;;;;14.20;12.73;;;;;;;15.31;100.00;95892.13;1001265;29;20432;-83
2021/06/09 00:45:42;;;;;;;14.73;13.23;;;;;;;15.19;100.00;95857.16;1009478;29;20029;-83
2021/06/09 00:46:13;;;;;;;15.70;13.98;;;;;;;15.25;100.00;95875.03;1006015;29;20044;-83
2021/06/09 00:46:45;;;;;;;16.25;13.57;;;;;;;15.12;100.00;95866.19;1002314;29;20034;-82
2021/06/09 00:47:24;;;;;;;14.45;13.00;;;;;;;15.00;100.00;95849.97;998026;29;20102;-82
2021/06/09 00:47:59;;;;;;;15.40;13.27;;;;;;;15.34;100.00;95894.38;1005900;29;20054;-81
2021/06/09 00:48:32;;;;;;;14.80;12.77;;;;;;;15.43;100.00;95903.00;1008919;29;20033;-81
2021/06/09 00:49:04;;;;;;;15.10;13.60;;;;;;;15.03;100.00;95831.66;1005247;29;20045;-81
2021/06/09 00:49:35;;;;;;;14.60;12.65;;;;;;;15.40;100.00;95880.16;1001649;29;20037;-81
2021/06/09 00:50:08;;;;;;;14.57;12.95;;;;;;;15.37;100.00;95877.91;1005273;29;20029;-82
2021/06/09 00:50:40;;;;;;;15.00;13.35;;;;;;;15.32;100.00;95871.53;1005541;29;20033;-81
2021/06/09 00:51:18;;;;;;;14.65;12.75;;;;;;;15.33;100.00;95897.28;1000966;29;20037;-80
2021/06/09 00:51:51;;;;;;;16.35;13.15;;;;;;;14.99;100.00;95840.28;994034;29;20457;-81
2021/06/09 00:52:26;;;;;;;17.05;13.32;;;;;;;15.26;100.00;95882.03;1008815;29;20526;-83
2021/06/09 00:53:53;;;;;;;16.08;13.07;;;;;;;15.41;100.00;95900.56;1012850;29;20056;-81
2021/06/09 00:54:27;;;;;;;14.90;13.35;;;;;;;15.34;100.00;95880.19;1005366;29;20519;-81
2021/06/09 00:55:03;;;;;;;15.18;13.25;;;;;;;15.42;100.00;95893.34;1005157;29;20448;-81
2021/06/09 00:55:49;;;;;;;15.10;13.00;;;;;;;15.45;100.00;95898.28;1004795;29;20061;-81
2021/06/09 00:56:33;;;;;;;17.50;14.00;;;;;;;15.38;100.00;95898.31;1004983;29;20025;-81
2021/06/09 00:57:05;;;;;;;17.38;13.38;;;;;;;15.31;100.00;95883.25;1008313;29;20044;-80
2021/06/09 00:57:36;;;;;;;15.40;13.90;;;;;;;15.36;100.00;95900.38;1011919;29;20403;-80
2021/06/09 00:58:07;;;;;;;16.27;14.15;;;;;;;15.22;100.00;95867.44;1013454;29;20458;-80
2021/06/09 00:58:43;;;;;;;14.75;12.68;;;;;;;15.28;100.00;95887.19;1008484;29;20033;-80
2021/06/09 00:59:13;;;;;;;16.88;13.75;;;;;;;15.31;100.00;95892.13;1000667;29;20048;-80
2021/06/09 00:59:44;;;;;;;14.82;12.30;;;;;;;15.21;100.00;95889.84;1000675;29;20034;-79
2021/06/09 01:00:15;;;;;;;17.17;13.45;;;;;;;15.22;100.00;95896.88;1000255;29;20110;-78
2021/06/09 01:00:46;;;;;;;15.10;13.52;;;;;;;15.25;100.00;95898.28;1004411;29;20599;-78
2021/06/09 01:01:18;;;;;;;15.38;13.63;;;;;;;15.14;100.00;95880.22;1004421;29;20033;-78
2021/06/09 01:01:49;;;;;;;14.70;13.20;;;;;;;15.17;100.00;95885.97;996892;29;20033;-77
2021/06/09 01:02:19;;;;;;;15.57;13.73;;;;;;;15.26;100.00;95897.28;997366;29;20030;-80
2021/06/09 01:02:50;;;;;;;17.83;14.63;;;;;;;15.26;100.00;95898.09;1001171;29;20026;-80
2021/06/09 01:03:21;;;;;;;15.95;13.95;;;;;;;15.27;100.00;95898.91;1004587;29;20025;-80
2021/06/09 01:03:51;;;;;;;14.85;13.20;;;;;;;15.26;100.00;95894.59;1000966;29;20403;-79
2021/06/09 01:04:22;;;;;;;14.85;13.13;;;;;;;15.20;100.00;95893.56;993292;29;20037;-80
2021/06/09 01:04:53;;;;;;;17.48;13.63;;;;;;;15.20;100.00;95901.59;1005621;29;20057;-80
2021/06/09 01:05:23;;;;;;;15.52;12.55;;;;;;;15.11;100.00;95892.13;1002582;29;20030;-81
2021/06/09 01:05:54;;;;;;;16.60;13.13;;;;;;;15.15;100.00;95904.06;998474;29;20046;-81
2021/06/09 01:06:25;;;;;;;15.13;13.00;;;;;;;15.07;100.00;95901.59;1003023;29;20537;-80
2021/06/09 01:06:56;;;;;;;15.23;13.63;;;;;;;15.09;100.00;95911.06;1004417;29;20044;-80
2021/06/09 01:07:26;;;;;;;14.52;13.02;;;;;;;15.13;100.00;95906.09;1011021;29;20100;-81
2021/06/09 01:08:01;;;;;;;15.82;13.32;;;;;;;15.15;100.00;95904.06;1004100;29;20030;-81
2021/06/09 01:08:38;;;;;;;18.42;13.95;;;;;;;15.18;100.00;95903.63;1003459;29;20026;-82
2021/06/09 01:09:09;;;;;;;15.57;13.90;;;;;;;15.24;100.00;95907.38;1001803;29;20066;-82
2021/06/09 01:09:40;;;;;;;16.23;14.55;;;;;;;15.10;100.00;95890.50;1008309;29;20084;-81
2021/06/09 01:10:10;;;;;;;18.05;13.25;;;;;;;15.11;100.00;95899.34;1004306;29;20616;-81
2021/06/09 01:10:41;;;;;;;16.05;13.80;;;;;;;15.10;100.00;95895.84;1008529;29;20045;-82
2021/06/09 01:11:14;;;;;;;17.15;15.35;;;;;;;15.14;100.00;95894.41;1012335;29;20031;-81
2021/06/09 01:11:44;;;;;;;16.50;12.93;;;;;;;15.23;100.00;95901.19;1004281;29;20036;-82
2021/06/09 01:12:15;;;;;;;15.85;14.15;;;;;;;15.13;100.00;95879.34;1000554;29;20044;-81
2021/06/09 01:12:46;;;;;;;15.45;13.77;;;;;;;15.24;100.00;95889.44;1000495;29;20405;-80
2021/06/09 01:13:20;;;;;;;15.25;13.75;;;;;;;15.30;100.00;95908.38;1000617;29;20141;-81
2021/06/09 01:13:51;;;;;;;16.38;13.23;;;;;;;15.33;100.00;95897.28;1000410;29;20026;-81
2021/06/09 01:14:22;;;;;;;15.43;13.35;;;;;;;15.25;100.00;95885.72;1004158;29;20071;-80
2021/06/09 01:14:53;;;;;;;16.88;14.43;;;;;;;15.16;100.00;95878.97;996748;29;20031;-80
2021/06/09 01:15:24;;;;;;;15.65;12.73;;;;;;;15.16;100.00;95883.50;1004141;29;20029;-80
2021/06/09 01:15:55;;;;;;;16.00;14.38;;;;;;;15.27;100.00;95890.88;1004251;29;20067;-78
2021/06/09 01:16:25;;;;;;;15.35;13.18;;;;;;;15.28;100.00;95898.69;1004350;29;20033;-79
2021/06/09 01:16:56;;;;;;;15.07;13.48;;;;;;;15.26;100.00;95884.72;1004587;29;20431;-80
2021/06/09 01:17:27;;;;;;;15.00;13.38;;;;;;;15.32;100.00;95885.72;996821;29;20045;-80
2021/06/09 01:17:58;;;;;;;17.67;13.30;;;;;;;15.20;100.00;95877.50;996850;29;20105;-80
2021/06/09 01:18:29;;;;;;;14.75;13.23;;;;;;;15.20;100.00;95890.06;1004431;29;20415;-80
2021/06/09 01:18:59;;;;;;;15.20;13.57;;;;;;;14.98;100.00;95852.00;1000685;29;20037;-80
2021/06/09 01:19:30;;;;;;;16.08;13.82;;;;;;;15.07;100.00;95874.84;1000609;29;20026;-81
2021/06/09 01:20:01;;;;;;;15.40;13.75;;;;;;;15.20;100.00;95904.25;1004605;29;20026;-80
2021/06/09 01:20:33;;;;;;;15.82;13.32;;;;;;;15.18;100.00;95902.81;1000712;29;20040;-80
2021/06/09 01:21:04;;;;;;;15.05;13.60;;;;;;;15.13;100.00;95898.09;1000294;29;20029;-80
2021/06/09 01:21:35;;;;;;;16.67;13.98;;;;;;;15.14;100.00;95901.59;1007965;29;20115;-81
2021/06/09 01:22:05;;;;;;;15.60;13.15;;;;;;;15.07;100.00;95886.38;1000210;29;20037;-81
2021/06/09 01:22:36;;;;;;;15.00;13.45;;;;;;;15.09;100.00;95883.50;1004070;29;20839;-80
2021/06/09 01:23:07;;;;;;;14.18;12.68;;;;;;;15.20;100.00;95893.56;1000418;29;20029;-81
2021/06/09 01:23:38;;;;;;;15.20;13.60;;;;;;;15.20;100.00;95887.38;1000484;29;20038;-81
2021/06/09 01:24:08;;;;;;;13.75;12.32;;;;;;;15.34;100.00;95898.91;1000248;29;20033;-82
2021/06/09 01:24:40;;;;;;;14.43;12.60;;;;;;;15.34;100.00;95897.03;1000458;29;20030;-83
2021/06/09 01:25:11;;;;;;;14.95;13.40;;;;;;;15.17;100.00;95885.97;1004031;29;20102;-81
2021/06/09 01:25:42;;;;;;;15.15;13.57;;;;;;;15.31;100.00;95910.88;1003925;29;20512;-81
2021/06/09 01:26:14;;;;;;;14.35;12.85;;;;;;;15.17;100.00;95874.41;1000291;29;20033;-81
2021/06/09 01:26:46;;;;;;;16.42;13.23;;;;;;;15.16;100.00;95873.59;1000391;29;20082;-80
2021/06/09 01:27:20;;;;;;;14.98;13.38;;;;;;;15.23;100.00;95878.97;1004367;29;20043;-81
2021/06/09 01:27:52;;;;;;;16.33;13.15;;;;;;;15.34;100.00;95905.06;1000249;29;20030;-81
2021/06/09 01:28:25;;;;;;;15.15;13.52;;;;;;;15.25;100.00;95898.28;1004124;29;20055;-81
2021/06/09 01:28:56;;;;;;;16.67;13.30;;;;;;;14.98;100.00;95868.03;1004613;29;20033;-82
2021/06/09 01:29:27;;;;;;;14.57;13.18;;;;;;;15.17;100.00;95906.53;1012642;29;20024;-83
2021/06/09 01:29:58;;;;;;;14.80;13.20;;;;;;;15.06;100.00;95879.38;1004543;29;20504;-81
2021/06/09 01:30:29;;;;;;;16.10;13.65;;;;;;;14.95;100.00;95865.81;1004697;29;20554;-81
2021/06/09 01:31:01;;;;;;;16.25;14.38;;;;;;;14.97;100.00;95875.25;1004177;29;20025;-81
2021/06/09 01:31:34;;;;;;;14.70;12.93;;;;;;;15.11;100.00;95886.78;1008592;29;20033;-81
2021/06/09 01:32:07;;;;;;;16.92;13.90;;;;;;;15.22;100.00;95904.06;1004953;29;20468;-80
2021/06/09 01:32:39;;;;;;;16.40;14.70;;;;;;;14.81;100.00;95848.94;1005624;29;20029;-80
2021/06/09 01:33:12;;;;;;;16.48;14.48;;;;;;;15.10;100.00;95903.88;1006158;29;20030;-80
2021/06/09 01:33:44;;;;;;;15.48;13.75;;;;;;;15.12;100.00;95893.78;1009908;29;20029;-81
2021/06/09 01:34:17;;;;;;;16.20;13.88;;;;;;;15.02;100.00;95874.63;1006070;29;20081;-82
2021/06/09 01:34:49;;;;;;;16.20;14.05;;;;;;;14.92;100.00;95858.19;1010109;29;20092;-83
2021/06/09 01:35:21;;;;;;;15.05;13.25;;;;;;;14.98;100.00;95868.03;1006705;29;20033;-82
2021/06/09 01:35:53;;;;;;;14.85;13.05;;;;;;;14.93;100.00;95866.00;999121;29;20030;-82
2021/06/09 01:36:24;;;;;;;16.92;13.98;;;;;;;14.98;100.00;95876.91;998830;29;20037;-85
2021/06/09 01:36:55;;;;;;;15.88;13.73;;;;;;;14.98;100.00;95876.91;1002651;29;20156;-84
2021/06/09 01:37:27;;;;;;;16.08;13.73;;;;;;;15.05;100.00;95893.78;1002677;29;20489;-81
2021/06/09 01:37:58;;;;;;;16.77;13.95;;;;;;;14.96;100.00;95883.47;1002755;29;20155;-80
2021/06/09 01:38:29;;;;;;;16.20;14.45;;;;;;;14.76;100.00;95854.06;1002766;29;20030;-81
2021/06/09 01:39:05;;;;;;;18.55;14.63;;;;;;;14.65;100.00;95852.81;1006384;29;20025;-83
2021/06/09 01:39:37;;;;;;;15.82;14.07;;;;;;;14.81;100.00;95873.00;1006730;29;20518;-82
2021/06/09 01:40:12;;;;;;;17.38;14.02;;;;;;;15.13;100.00;95899.94;1003719;29;20022;-81
2021/06/09 01:40:45;;;;;;;20.85;14.60;;;;;;;14.93;100.00;95883.91;1006686;29;20432;-82
2021/06/09 01:41:24;;;;;;;16.30;13.55;;;;;;;14.93;100.00;95878.56;1002356;29;20579;-81
2021/06/09 01:41:57;;;;;;;16.08;13.95;;;;;;;15.01;100.00;95897.91;1006195;29;20021;-81
2021/06/09 01:42:32;;;;;;;16.40;14.57;;;;;;;15.03;100.00;95905.69;1009753;29;20069;-81
2021/06/09 01:43:05;;;;;;;15.13;13.13;;;;;;;14.70;100.00;95837.00;1005841;29;20508;-84
2021/06/09 01:43:40;;;;;;;14.85;13.23;;;;;;;15.11;100.00;95892.13;1006405;29;20593;-81
2021/06/09 01:44:14;;;;;;;15.32;13.82;;;;;;;15.12;100.00;95893.78;1009646;29;20444;-81
2021/06/09 01:44:49;;;;;;;15.13;13.60;;;;;;;15.21;100.00;95902.41;1001904;29;20029;-82
2021/06/09 01:45:27;;;;;;;15.15;13.55;;;;;;;15.09;100.00;95889.66;998506;29;20058;-81
2021/06/09 01:45:59;;;;;;;16.88;13.10;;;;;;;14.97;100.00;95864.56;1005451;29;20511;-81
2021/06/09 01:46:31;;;;;;;15.60;13.98;;;;;;;14.85;100.00;95861.66;1005542;29;20025;-81
2021/06/09 01:47:03;;;;;;;14.95;13.07;;;;;;;15.14;100.00;95897.06;1005258;29;20472;-82
2021/06/09 01:47:34;;;;;;;16.95;13.38;;;;;;;14.86;100.00;95860.66;1005374;29;20520;-81
2021/06/09 01:48:07;;;;;;;16.50;14.80;;;;;;;14.95;100.00;95889.88;1001500;29;20557;-81
2021/06/09 01:48:39;;;;;;;15.65;13.65;;;;;;;14.67;100.00;95843.56;1005411;29;20092;-81
2021/06/09 01:49:13;;;;;;;16.52;14.68;;;;;;;14.95;100.00;95884.53;1005440;29;20131;-81
2021/06/09 01:49:45;;;;;;;15.77;14.00;;;;;;;15.08;100.00;95903.22;1009108;29;20029;-81
2021/06/09 01:50:18;;;;;;;16.27;14.27;;;;;;;14.97;100.00;95903.84;1005647;29;20479;-81
2021/06/09 01:50:51;;;;;;;16.00;14.30;;;;;;;14.93;100.00;95895.41;1009263;29;20514;-81
2021/06/09 01:51:37;;;;;;;17.65;15.57;;;;;;;14.85;100.00;95896.41;1005581;29;20029;-81
2021/06/09 01:52:35;;;;;;;19.35;14.70;;;;;;;14.84;100.00;95908.16;1009901;29;20571;-82
2021/06/09 01:53:25;;;;;;;17.75;15.18;;;;;;;14.44;100.00;95856.47;1005574;29;20113;-81
2021/06/09 01:54:33;;;;;;;18.10;15.27;;;;;;;14.76;100.00;95900.31;1006321;29;20037;-81
2021/06/09 01:55:29;;;;;;;20.45;15.43;;;;;;;14.74;100.00;95891.69;1009571;29;20511;-81
2021/06/09 01:56:21;;;;;;;19.42;16.30;;;;;;;14.72;100.00;95872.38;1009339;29;20042;-82
2021/06/09 01:57:08;;;;;;;16.25;13.93;;;;;;;14.90;100.00;95901.16;1001991;29;20074;-81
2021/06/09 01:57:58;;;;;;;17.27;14.88;;;;;;;14.92;100.00;95909.00;996651;29;20035;-82
2021/06/09 01:59:12;;;;;;;16.95;13.80;;;;;;;14.95;100.00;95901.38;1008410;29;20522;-81
2021/06/09 01:59:59;;;;;;;18.30;14.85;;;;;;;14.88;100.00;95903.22;1009221;29;20515;-80
2021/06/09 02:00:39;;;;;;;24.48;15.00;;;;;;;14.75;100.00;95879.97;1009812;29;20025;-81
2021/06/09 02:01:17;;;;;;;16.90;14.73;;;;;;;14.92;100.00;95896.44;1013864;29;20056;-80
2021/06/09 02:01:58;;;;;;;16.58;14.85;;;;;;;14.78;100.00;95876.06;1013587;29;20052;-81
2021/06/09 02:02:37;;;;;;;16.48;14.75;;;;;;;14.89;100.00;95896.84;1005777;29;20029;-81
2021/06/09 02:03:19;;;;;;;17.08;15.00;;;;;;;14.92;100.00;95898.28;1005670;29;20077;-79
2021/06/09 02:04:02;;;;;;;16.05;14.25;;;;;;;14.90;100.00;95898.50;1009527;29;20535;-81
2021/06/09 02:04:35;;;;;;;18.83;14.80;;;;;;;14.61;100.00;95855.09;1012324;29;20121;-79
2021/06/09 02:05:08;;;;;;;15.85;14.13;;;;;;;14.65;100.00;95861.66;1001533;29;20025;-80
2021/06/09 02:05:39;;;;;;;17.00;14.95;;;;;;;14.67;100.00;95867.63;997680;29;20113;-80
2021/06/09 02:06:10;;;;;;;15.90;14.20;;;;;;;14.63;100.00;95874.41;1005708;29;20058;-80
2021/06/09 02:06:42;;;;;;;17.27;15.02;;;;;;;14.60;100.00;95874.00;998016;29;20401;-81
2021/06/09 02:07:13;;;;;;;16.67;14.90;;;;;;;14.67;100.00;95874.81;999731;29;20026;-80
2021/06/09 02:07:44;;;;;;;16.52;14.77;;;;;;;14.80;100.00;95890.84;1005286;29;20030;-82
2021/06/09 02:08:15;;;;;;;15.85;14.15;;;;;;;14.56;100.00;95846.81;1008948;29;20096;-82
2021/06/09 02:08:46;;;;;;;15.75;14.13;;;;;;;14.89;100.00;95886.97;1009135;29;20049;-83
2021/06/09 02:09:17;;;;;;;15.15;13.65;;;;;;;14.94;100.00;95882.84;1008877;29;20049;-81
2021/06/09 02:09:47;;;;;;;16.77;14.70;;;;;;;14.80;100.00;95865.97;1008786;29;20029;-82
2021/06/09 02:10:19;;;;;;;17.55;14.75;;;;;;;14.90;100.00;95883.25;1008292;29;20021;-81
2021/06/09 02:10:50;;;;;;;16.58;14.00;;;;;;;14.84;100.00;95870.72;1008094;29;20092;-79
2021/06/09 02:11:20;;;;;;;15.85;14.05;;;;;;;14.83;100.00;95895.81;1004247;29;20026;-83
2021/06/09 02:11:51;;;;;;;16.95;15.05;;;;;;;14.71;100.00;95882.22;1002466;29;20026;-81
2021/06/09 02:12:22;;;;;;;16.70;15.00;;;;;;;14.76;100.00;95894.16;1005239;29;20025;-81
2021/06/09 02:12:55;;;;;;;18.95;15.27;;;;;;;14.73;100.00;95895.38;1001543;29;20028;-81
2021/06/09 02:13:26;;;;;;;17.25;14.38;;;;;;;14.80;100.00;95893.53;1001429;29;20430;-81
2021/06/09 02:13:57;;;;;;;16.23;14.13;;;;;;;14.68;100.00;95881.78;1009226;29;20037;-80
2021/06/09 02:14:28;;;;;;;16.08;13.93;;;;;;;14.64;100.00;95885.91;1005169;29;20144;-83
2021/06/09 02:14:58;;;;;;;17.70;15.02;;;;;;;14.63;100.00;95889.59;997346;29;20026;-81
2021/06/09 02:15:29;;;;;;;17.05;15.27;;;;;;;14.62;100.00;95888.78;1001350;29;20030;-81
2021/06/09 02:16:01;;;;;;;18.48;15.13;;;;;;;14.65;100.00;95898.25;1005230;29;20484;-81
2021/06/09 02:16:35;;;;;;;16.95;15.13;;;;;;;14.60;100.00;95882.81;1005075;29;20056;-79
2021/06/09 02:17:06;;;;;;;16.90;14.52;;;;;;;14.74;100.00;95891.69;1005228;29;20564;-81
2021/06/09 02:17:37;;;;;;;17.52;15.10;;;;;;;14.72;100.00;95896.41;1005156;29;20026;-80
2021/06/09 02:18:09;;;;;;;21.83;15.45;;;;;;;14.58;100.00;95876.00;1005211;29;20037;-80
2021/06/09 02:18:40;;;;;;;16.75;14.35;;;;;;;14.70;100.00;95885.13;1008941;29;20044;-80
2021/06/09 02:19:11;;;;;;;16.45;14.65;;;;;;;14.70;100.00;95896.63;1001443;29;20385;-80
2021/06/09 02:19:41;;;;;;;18.33;14.63;;;;;;;14.78;100.00;95890.25;1005238;29;20018;-80
2021/06/09 02:20:13;;;;;;;18.15;15.55;;;;;;;14.80;100.00;95884.69;1008799;29;20021;-79
2021/06/09 02:20:44;;;;;;;20.50;15.75;;;;;;;14.82;100.00;95896.84;1005367;29;20020;-79
2021/06/09 02:21:14;;;;;;;17.65;14.95;;;;;;;14.81;100.00;95891.69;1006621;29;20025;-80
2021/06/09 02:21:45;;;;;;;17.42;15.07;;;;;;;14.85;100.00;95887.59;1010742;29;20036;-80
2021/06/09 02:22:16;;;;;;;18.25;15.23;;;;;;;14.88;100.00;95893.34;1007056;29;20029;-80
2021/06/09 02:22:46;;;;;;;17.23;14.25;;;;;;;14.75;100.00;95871.97;1007280;29;20038;-81
2021/06/09 02:23:18;;;;;;;17.00;14.68;;;;;;;14.84;100.00;95886.78;1003421;29;20463;-80
2021/06/09 02:23:49;;;;;;;16.35;14.73;;;;;;;14.82;100.00;95888.84;1008464;29;20029;-81
2021/06/09 02:24:20;;;;;;;16.50;14.82;;;;;;;14.71;100.00;95878.72;1005199;29;20038;-81
2021/06/09 02:24:50;;;;;;;16.35;14.68;;;;;;;14.72;100.00;95893.75;1009478;29;20033;-81
2021/06/09 02:25:21;;;;;;;16.75;14.45;;;;;;;14.68;100.00;95884.47;1009712;29;20019;-81
2021/06/09 02:25:54;;;;;;;18.17;15.32;;;;;;;14.69;100.00;95886.94;1009713;29;20033;-80
2021/06/09 02:26:24;;;;;;;16.30;14.55;;;;;;;14.71;100.00;95887.56;1008440;29;20034;-81
2021/06/09 02:27:00;;;;;;;16.27;14.57;;;;;;;14.54;100.00;95864.88;1011552;29;20032;-82
2021/06/09 02:27:41;;;;;;;19.38;16.60;;;;;;;14.62;100.00;95886.13;1004093;29;20526;-81
2021/06/09 02:28:20;;;;;;;17.20;15.20;;;;;;;14.52;100.00;95872.28;1004020;29;20029;-81
2021/06/09 02:29:00;;;;;;;16.98;14.45;;;;;;;14.59;100.00;95888.38;1007454;29;20063;-80
2021/06/09 02:29:40;;;;;;;17.33;15.23;;;;;;;14.64;100.00;95888.59;1001740;29;20038;-80
2021/06/09 02:30:15;;;;;;;16.65;14.85;;;;;;;14.69;100.00;95894.16;999243;29;20070;-80
2021/06/09 02:30:50;;;;;;;18.40;15.60;;;;;;;14.58;100.00;95870.63;1003989;29;20042;-81
2021/06/09 02:31:25;;;;;;;19.95;15.43;;;;;;;14.42;100.00;95859.34;1000380;29;20031;-80
2021/06/09 02:31:59;;;;;;;18.75;15.60;;;;;;;14.41;100.00;95844.31;1008330;29;20029;-80
2021/06/09 02:32:32;;;;;;;16.60;14.90;;;;;;;14.71;100.00;95886.75;1004149;29;20057;-80
2021/06/09 02:33:04;;;;;;;16.85;15.05;;;;;;;14.58;100.00;95865.28;1007730;29;20076;-81
2021/06/09 02:33:38;;;;;;;16.23;14.50;;;;;;;14.47;100.00;95848.00;1003888;29;20034;-81
2021/06/09 02:34:29;;;;;;;18.83;16.15;;;;;;;14.59;100.00;95883.84;1005956;29;20433;-81
2021/06/09 02:35:04;;;;;;;18.75;15.75;;;;;;;14.53;100.00;95866.75;993718;29;20057;-80
2021/06/09 02:35:40;;;;;;;17.83;15.82;;;;;;;14.64;100.00;95881.38;1001247;29;20574;-82
2021/06/09 02:36:15;;;;;;;17.15;14.95;;;;;;;14.41;100.00;95832.81;1005305;29;20032;-80
2021/06/09 02:36:52;;;;;;;19.58;15.70;;;;;;;14.60;100.00;95852.59;1005106;29;20029;-80
2021/06/09 02:37:26;;;;;;;17.23;15.40;;;;;;;14.59;100.00;95856.28;1001281;29;20033;-81